LavenderCAM.net
Leatherhead Weather
 
Leatherhead Weather
 
 





Aviation weather for

London Heathrow (EGLL) and London Gatwick (EGKK)



London Heathrow (EGLL) METAR / Surface Actual
London / Heathrow Airport, United Kingdom (EGLL) 51-29N 000-27W 0M
Aug 09, 2022 - 11:50 PM EDT / 2022.08.10 0350 UTC
Wind: from the N (010 degrees) at 5 MPH (4 KT):0
Visibility: greater than 7 mile(s):0
Temperature: 60 F (16 C)
Dew Point: 53 F (12 C)
Relative Humidity: 77%
Pressure (altimeter): 30.33 in. Hg (1027 hPa)
ob: EGLL 100350Z AUTO 01004KT 9999 NCD 16/12 Q1027
cycle: 4
London Heathrow (EGLL) TAF / Forecast
2022/08/09 18:09
TAF EGLL 091654Z 0918/1024 09007KT CAVOK PROB30 1003/1007 8000


London Gatwick (EGKK) METAR / Surface Actual
London / Gatwick Airport, United Kingdom (EGKK) 51-09N 000-11W 0M
Aug 09, 2022 - 11:50 PM EDT / 2022.08.10 0350 UTC
Wind: from the NE (040 degrees) at 2 MPH (2 KT):0
Visibility: greater than 7 mile(s):0
Temperature: 55 F (13 C)
Dew Point: 53 F (12 C)
Relative Humidity: 93%
Pressure (altimeter): 30.30 in. Hg (1026 hPa)
ob: EGKK 100350Z 04002KT CAVOK 13/12 Q1026
cycle: 4
London Gatwick (EGKK) TAF / Forecast
2022/08/09 18:09
TAF EGKK 091657Z 0918/1024 05006KT CAVOK PROB30 1004/1007 4000 BR